createdAt,value
2019-02-17T00:01:24.225Z,101246.05
2019-02-17T00:03:53.724Z,101255.80
2019-02-17T00:06:23.072Z,101249.43
2019-02-17T00:08:52.259Z,101256.99
2019-02-17T00:11:21.678Z,101262.87
2019-02-17T00:13:50.900Z,101267.84
2019-02-17T00:16:20.142Z,101264.19
2019-02-17T00:18:49.432Z,101264.48
2019-02-17T00:21:18.692Z,101263.98
2019-02-17T00:23:47.914Z,101268.16
2019-02-17T00:26:17.322Z,101270.84
2019-02-17T00:28:46.595Z,101279.40
2019-02-17T00:31:15.799Z,101283.28
2019-02-17T00:33:45.226Z,101295.72
2019-02-17T00:36:14.580Z,101296.41
2019-02-17T00:38:43.810Z,101288.05
2019-02-17T00:41:13.101Z,101294.41
2019-02-17T00:43:42.355Z,101297.69
2019-02-17T00:46:11.548Z,101305.84
2019-02-17T00:48:41.016Z,101320.98
2019-02-17T00:51:10.383Z,101312.61
2019-02-17T00:53:39.576Z,101322.75
2019-02-17T00:56:09.122Z,101331.81
2019-02-17T00:58:38.357Z,101329.02
2019-02-17T01:01:07.756Z,101340.55
2019-02-17T01:03:37.182Z,101351.98
2019-02-17T01:06:07.216Z,101350.87
2019-02-17T01:08:36.396Z,101360.61
2019-02-17T01:11:05.853Z,101353.42
2019-02-17T01:13:35.107Z,101362.59
2019-02-17T01:16:04.304Z,101359.39
2019-02-17T01:18:33.613Z,101362.27
2019-02-17T01:21:02.833Z,101366.44
2019-02-17T01:23:32.025Z,101366.22
2019-02-17T01:26:01.442Z,101369.67
2019-02-17T01:28:30.653Z,101371.64
2019-02-17T01:30:59.894Z,101370.75
2019-02-17T01:33:29.182Z,101379.69
2019-02-17T01:35:58.541Z,101384.47
2019-02-17T01:38:28.754Z,101391.22
2019-02-17T01:40:58.169Z,101396.67
2019-02-17T01:43:27.547Z,101401.34
2019-02-17T01:45:56.745Z,101398.76
2019-02-17T01:48:26.155Z,101400.05
2019-02-17T01:50:58.980Z,101403.71
2019-02-17T01:53:28.548Z,101403.89
2019-02-17T01:55:57.745Z,101405.46
2019-02-17T01:58:27.007Z,101409.84
2019-02-17T02:00:56.656Z,101411.25
2019-02-17T02:03:25.887Z,101423.89
2019-02-17T02:05:55.265Z,101424.40
2019-02-17T02:08:24.726Z,101431.54
2019-02-17T02:10:54.027Z,101433.52
2019-02-17T02:13:23.280Z,101433.80
2019-02-17T02:15:52.579Z,101433.58
2019-02-17T02:18:21.781Z,101433.35
2019-02-17T02:20:51.026Z,101434.14
2019-02-17T02:23:20.666Z,101435.72
2019-02-17T02:25:49.871Z,101440.66
2019-02-17T02:28:19.199Z,101438.36
2019-02-17T02:30:48.663Z,101438.64
2019-02-17T02:33:17.869Z,101444.09
2019-02-17T02:35:47.074Z,101450.33
2019-02-17T02:38:16.455Z,101450.33
2019-02-17T02:40:46.171Z,101457.52
2019-02-17T02:43:15.396Z,101457.75
2019-02-17T02:45:44.747Z,101454.37
2019-02-17T02:48:13.933Z,101460.05
2019-02-17T02:50:43.213Z,101467.80
2019-02-17T02:53:12.531Z,101474.27
2019-02-17T02:55:41.770Z,101478.42
2019-02-17T02:58:11.385Z,101489.55
2019-02-17T03:00:40.698Z,101494.10
2019-02-17T03:03:09.888Z,101495.28
2019-02-17T03:05:44.952Z,101496.45
2019-02-17T03:08:14.382Z,101493.37
2019-02-17T03:10:43.599Z,101494.04
2019-02-17T03:13:13.142Z,101493.81
2019-02-17T03:15:42.342Z,101503.53
2019-02-17T03:18:11.523Z,101498.25
2019-02-17T03:20:40.876Z,101504.75
2019-02-17T03:23:10.054Z,101504.92
2019-02-17T03:25:39.252Z,101508.80
2019-02-17T03:28:08.807Z,101521.59
2019-02-17T03:30:38.008Z,101526.38
2019-02-17T03:33:07.204Z,101531.16
2019-02-17T03:35:36.562Z,101529.74
2019-02-17T03:38:05.757Z,101529.13
2019-02-17T03:40:35.451Z,101525.68
2019-02-17T03:43:04.858Z,101532.30
2019-02-17T03:45:34.041Z,101528.30
2019-02-17T03:48:03.251Z,101526.62
2019-02-17T03:50:32.667Z,101529.76
2019-02-17T03:53:01.858Z,101537.78
2019-02-17T03:55:31.136Z,101526.48
2019-02-17T03:58:00.440Z,101531.17
2019-02-17T04:00:29.760Z,101539.97
2019-02-17T04:02:58.960Z,101533.28
2019-02-17T04:05:28.392Z,101534.58
2019-02-17T04:07:57.561Z,101535.74
2019-02-17T04:10:26.981Z,101529.68
2019-02-17T04:12:56.425Z,101533.05
2019-02-17T04:15:25.614Z,101530.73
2019-02-17T04:17:54.798Z,101537.73
2019-02-17T04:20:24.205Z,101542.03
2019-02-17T04:22:53.379Z,101533.16
2019-02-17T04:25:22.560Z,101534.71
2019-02-17T04:27:52.123Z,101529.47
2019-02-17T04:30:29.291Z,101521.75
2019-02-17T04:32:52.212Z,101523.47
2019-02-17T04:35:21.730Z,101524.91
2019-02-17T04:37:50.900Z,101527.12
2019-02-17T04:40:20.091Z,101525.98
2019-02-17T04:42:49.544Z,101529.37
2019-02-17T04:45:18.824Z,101529.78
2019-02-17T04:47:48.006Z,101531.61
2019-02-17T04:50:17.437Z,101531.37
2019-02-17T04:52:46.619Z,101525.97
2019-02-17T04:55:15.803Z,101533.44
2019-02-17T04:57:45.241Z,101528.16
2019-02-17T05:00:14.419Z,101525.58
2019-02-17T05:02:43.597Z,101524.67
2019-02-17T05:05:12.962Z,101530.61
2019-02-17T05:07:42.223Z,101536.28
2019-02-17T05:10:11.444Z,101548.91
2019-02-17T05:12:40.945Z,101549.55
2019-02-17T05:15:10.120Z,101556.63
2019-02-17T05:17:39.314Z,101554.56
2019-02-17T05:20:08.698Z,101563.08
2019-02-17T05:22:39.491Z,101565.53
2019-02-17T05:25:08.801Z,101572.25
2019-02-17T05:27:38.122Z,101569.03
2019-02-17T05:30:08.599Z,101560.80
2019-02-17T05:32:37.777Z,101559.14
2019-02-17T05:35:07.115Z,101559.41
2019-02-17T05:37:36.299Z,101563.54
2019-02-17T05:40:05.827Z,101589.98
2019-02-17T05:42:35.297Z,101610.48
2019-02-17T05:45:04.635Z,101610.11
2019-02-17T05:47:33.964Z,101599.55
2019-02-17T05:50:03.275Z,101588.59
2019-02-17T05:52:33.762Z,101590.56
2019-02-17T05:55:03.027Z,101589.16
2019-02-17T05:57:32.377Z,101593.80
2019-02-17T06:00:01.579Z,101598.05
2019-02-17T06:02:30.817Z,101606.95
2019-02-17T06:05:00.339Z,101622.80
2019-02-17T06:07:29.543Z,101619.45
2019-02-17T06:09:58.731Z,101621.90
2019-02-17T06:12:28.043Z,101612.75
2019-02-17T06:14:57.287Z,101614.69
2019-02-17T06:17:26.468Z,101623.06
2019-02-17T06:19:55.763Z,101624.48
2019-02-17T06:22:24.963Z,101630.41
2019-02-17T06:24:54.199Z,101638.14
2019-02-17T06:27:23.550Z,101640.59
2019-02-17T06:29:52.825Z,101649.10
2019-02-17T06:32:22.061Z,101652.45
2019-02-17T06:34:51.615Z,101661.86
2019-02-17T06:37:20.827Z,101662.51
2019-02-17T06:39:50.052Z,101657.23
2019-02-17T06:42:19.454Z,101655.42
2019-02-17T06:44:48.772Z,101653.48
2019-02-17T06:47:23.397Z,101657.88
2019-02-17T06:49:52.739Z,101655.94
2019-02-17T06:52:22.051Z,101657.61
2019-02-17T06:55:04.754Z,101661.87
2019-02-17T06:57:38.172Z,101659.80
2019-02-17T07:00:21.468Z,101665.22
2019-02-17T07:02:50.889Z,101664.70
2019-02-17T07:05:37.656Z,101669.98
2019-02-17T07:08:08.237Z,101672.30
2019-02-17T07:10:37.429Z,101673.08
2019-02-17T07:13:06.681Z,101673.46
2019-02-17T07:15:35.964Z,101676.16
2019-02-17T07:18:06.626Z,101674.45
2019-02-17T07:20:35.831Z,101673.27
2019-02-17T07:23:05.351Z,101676.85
2019-02-17T07:25:34.556Z,101680.27
2019-02-17T07:28:03.809Z,101681.16
2019-02-17T07:30:33.101Z,101678.98
2019-02-17T07:33:02.355Z,101674.53
2019-02-17T07:35:31.729Z,101684.97
2019-02-17T07:38:01.054Z,101692.38
2019-02-17T07:40:30.263Z,101696.68
2019-02-17T07:42:59.650Z,101703.52
2019-02-17T07:45:29.074Z,101696.16
2019-02-17T07:47:58.261Z,101686.67
2019-02-17T07:50:27.564Z,101687.55
2019-02-17T07:52:57.265Z,101684.97
2019-02-17T07:55:26.565Z,101688.34
2019-02-17T07:57:55.822Z,101691.79
2019-02-17T08:00:25.268Z,101686.23
2019-02-17T08:02:54.484Z,101680.67
2019-02-17T08:05:23.713Z,101686.91
2019-02-17T08:07:52.990Z,101692.16
2019-02-17T08:10:22.258Z,101697.41
2019-02-17T08:12:51.563Z,101698.02
2019-02-17T08:15:20.962Z,101698.18
2019-02-17T08:17:50.287Z,101690.04
2019-02-17T08:20:19.529Z,101691.16
2019-02-17T08:22:48.964Z,101692.95
2019-02-17T08:25:21.692Z,101695.75
2019-02-17T08:27:49.131Z,101696.22
2019-02-17T08:30:18.504Z,101705.76
2019-02-17T08:32:47.805Z,101707.66
2019-02-17T08:35:17.018Z,101706.17
2019-02-17T08:37:46.642Z,101703.27
2019-02-17T08:40:16.011Z,101711.20
2019-02-17T08:42:45.359Z,101708.42
2019-02-17T08:45:14.639Z,101706.16
2019-02-17T08:47:43.909Z,101552.69
2019-02-17T08:50:13.296Z,101700.86
2019-02-17T08:52:42.737Z,101701.48
2019-02-17T08:55:12.115Z,101705.80
2019-02-17T08:57:41.381Z,101712.48
2019-02-17T09:00:12.048Z,101715.11
2019-02-17T09:02:41.375Z,101721.54
2019-02-17T09:05:10.616Z,101712.97
2019-02-17T09:07:40.054Z,101713.01
2019-02-17T09:10:10.687Z,101712.78
2019-02-17T09:12:40.014Z,101719.56
2019-02-17T09:15:10.702Z,101715.10
2019-02-17T09:17:39.953Z,101721.33
2019-02-17T09:20:10.190Z,101725.88
2019-02-17T09:22:39.545Z,101722.59
2019-02-17T09:25:09.972Z,101717.87
2019-02-17T09:27:39.413Z,101727.37
2019-02-17T09:30:16.043Z,101732.03
2019-02-17T09:32:45.276Z,101732.97
2019-02-17T09:35:14.477Z,101732.70
2019-02-17T09:37:44.043Z,101731.70
2019-02-17T09:40:13.383Z,101741.48
2019-02-17T09:42:42.660Z,101746.98
2019-02-17T09:45:13.351Z,101617.33
2019-02-17T09:47:42.832Z,101752.37
2019-02-17T09:50:12.877Z,101760.38
2019-02-17T09:52:42.200Z,101753.09
2019-02-17T09:55:11.620Z,101755.33
2019-02-17T09:57:41.032Z,101764.63
2019-02-17T10:00:11.921Z,101760.75
2019-02-17T10:02:41.247Z,101762.34
2019-02-17T10:05:10.691Z,101761.83
2019-02-17T10:07:40.070Z,101761.56
2019-02-17T10:10:11.670Z,101631.69
2019-02-17T10:12:41.203Z,101770.39
2019-02-17T10:15:11.725Z,101772.45
2019-02-17T10:17:41.043Z,101773.18
2019-02-17T10:20:10.810Z,101772.31
2019-02-17T10:22:40.016Z,101773.95
2019-02-17T10:25:09.493Z,101774.31
2019-02-17T10:27:38.862Z,101780.02
2019-02-17T10:30:09.945Z,101780.20
2019-02-17T10:32:39.413Z,101784.11
2019-02-17T10:35:09.047Z,101790.38
2019-02-17T10:37:38.244Z,101801.16
2019-02-17T10:40:09.372Z,101373.80
2019-02-17T10:42:38.630Z,101802.00
2019-02-17T10:45:08.869Z,101790.94
2019-02-17T10:47:38.125Z,101786.67
2019-02-17T10:50:08.282Z,101785.20
2019-02-17T10:52:37.606Z,101787.87
2019-02-17T10:55:07.038Z,101786.94
2019-02-17T10:57:36.312Z,101790.39
2019-02-17T11:00:08.629Z,101786.05
2019-02-17T11:02:46.599Z,101778.94
2019-02-17T11:05:08.914Z,101784.47
2019-02-17T11:07:38.127Z,101783.09
2019-02-17T11:10:08.169Z,101787.73
2019-02-17T11:12:37.701Z,101803.66
2019-02-17T11:15:08.871Z,101794.88
2019-02-17T11:17:38.196Z,101806.94
2019-02-17T11:20:07.672Z,101807.36
2019-02-17T11:22:36.867Z,101805.20
2019-02-17T11:25:06.254Z,101808.59
2019-02-17T11:27:35.568Z,101813.11
2019-02-17T11:30:05.677Z,101812.55
2019-02-17T11:32:35.112Z,101818.84
2019-02-17T11:35:04.489Z,101816.36
2019-02-17T11:37:33.982Z,101818.73
2019-02-17T11:40:03.489Z,101816.86
2019-02-17T11:42:32.707Z,101821.06
2019-02-17T11:45:02.003Z,101820.59
2019-02-17T11:47:32.635Z,101815.16
2019-02-17T11:50:01.979Z,101819.94
2019-02-17T11:52:31.229Z,101821.09
2019-02-17T11:55:01.756Z,101817.30
2019-02-17T11:57:31.163Z,101808.09
2019-02-17T12:00:00.467Z,101810.82
2019-02-17T12:02:30.144Z,101811.36
2019-02-17T12:04:59.625Z,101811.95
2019-02-17T12:07:28.845Z,101812.80
2019-02-17T12:09:58.641Z,101805.75
2019-02-17T12:12:27.997Z,101806.19
2019-02-17T12:14:57.250Z,101806.69
2019-02-17T12:17:26.700Z,101817.55
2019-02-17T12:20:00.294Z,101806.30
2019-02-17T12:22:34.617Z,101808.36
2019-02-17T12:25:07.394Z,101803.30
2019-02-17T12:28:04.945Z,101800.72
2019-02-17T12:30:36.238Z,101799.72
2019-02-17T12:33:05.516Z,101803.41
2019-02-17T12:35:35.105Z,101808.06
2019-02-17T12:38:04.407Z,101807.92
2019-02-17T12:40:34.649Z,101806.61
2019-02-17T12:43:04.223Z,101813.30
2019-02-17T12:45:33.681Z,101815.03
2019-02-17T12:48:02.906Z,101820.31
2019-02-17T12:50:32.327Z,101817.31
2019-02-17T12:53:02.060Z,101813.95
2019-02-17T12:55:31.410Z,101812.14
2019-02-17T12:58:00.968Z,101810.80
2019-02-17T13:00:30.238Z,101817.85
2019-02-17T13:02:59.544Z,101819.45
2019-02-17T13:05:29.003Z,101684.27
2019-02-17T13:07:58.219Z,101817.77
2019-02-17T13:10:27.519Z,101813.66
2019-02-17T13:12:57.086Z,101819.41
2019-02-17T13:15:26.432Z,101822.42
2019-02-17T13:17:55.730Z,101831.09
2019-02-17T13:20:25.424Z,101829.53
2019-02-17T13:22:54.900Z,101843.74
2019-02-17T13:25:24.300Z,101837.16
2019-02-17T13:27:58.696Z,101830.27
2019-02-17T13:30:28.020Z,101830.47
2019-02-17T13:33:01.688Z,101830.13
2019-02-17T13:35:31.060Z,101833.18
2019-02-17T13:38:00.337Z,101844.57
2019-02-17T13:40:29.708Z,101844.57
2019-02-17T13:42:59.100Z,101887.52
2019-02-17T13:45:28.332Z,101843.52
2019-02-17T13:47:57.601Z,101851.05
2019-02-17T13:50:27.110Z,101725.06
2019-02-17T13:52:56.361Z,101858.14
2019-02-17T13:55:26.859Z,101859.41
2019-02-17T13:57:56.220Z,101847.84
2019-02-17T14:00:25.496Z,101849.56
2019-02-17T14:02:54.759Z,101857.98
2019-02-17T14:05:24.331Z,101862.98
2019-02-17T14:07:53.668Z,101863.08
2019-02-17T14:10:22.962Z,101862.89
2019-02-17T14:12:52.417Z,101856.92
2019-02-17T14:15:21.839Z,101862.64
2019-02-17T14:17:51.040Z,101862.96
2019-02-17T14:20:20.756Z,101865.48
2019-02-17T14:22:50.016Z,101869.52
2019-02-17T14:25:19.245Z,101867.14
2019-02-17T14:27:48.654Z,101868.91
2019-02-17T14:30:18.729Z,101874.67
2019-02-17T14:32:48.074Z,101875.18
2019-02-17T14:35:17.560Z,101874.37
2019-02-17T14:37:46.990Z,101874.15
2019-02-17T14:40:16.509Z,101873.52
2019-02-17T14:42:46.411Z,101871.80
2019-02-17T14:45:15.955Z,101880.84
2019-02-17T14:47:45.266Z,101889.67
2019-02-17T14:50:14.686Z,101885.62
2019-02-17T14:52:44.899Z,101878.24
2019-02-17T14:55:14.105Z,101877.84
2019-02-17T14:57:43.703Z,101877.36
2019-02-17T15:00:13.114Z,101883.55
2019-02-17T15:02:42.738Z,101884.64
2019-02-17T15:05:12.211Z,101889.55
2019-02-17T15:07:41.634Z,101889.16
2019-02-17T15:10:11.082Z,101879.66
2019-02-17T15:12:40.533Z,101872.67
2019-02-17T15:15:10.158Z,101873.68
2019-02-17T15:17:39.422Z,101883.98
2019-02-17T15:20:10.776Z,101882.59
2019-02-17T15:22:40.100Z,101870.98
2019-02-17T15:25:10.549Z,101876.02
2019-02-17T15:27:40.008Z,101878.70
2019-02-17T15:30:11.296Z,101881.39
2019-02-17T15:32:40.527Z,101891.98
2019-02-17T15:35:09.858Z,101897.97
2019-02-17T15:37:39.089Z,101895.67
2019-02-17T15:40:08.893Z,101894.58
2019-02-17T15:42:38.276Z,101899.45
2019-02-17T15:45:08.734Z,101901.03
2019-02-17T15:47:37.961Z,101898.71
2019-02-17T15:50:08.571Z,101790.61
2019-02-17T15:52:37.800Z,101893.39
2019-02-17T15:55:07.959Z,101895.69
2019-02-17T15:57:37.574Z,101901.18
2019-02-17T16:00:09.387Z,101903.19
2019-02-17T16:02:38.829Z,101899.80
2019-02-17T16:05:08.747Z,101901.69
2019-02-17T16:07:38.223Z,101894.39
2019-02-17T16:10:08.681Z,101896.57
2019-02-17T16:12:38.128Z,101901.42
2019-02-17T16:15:09.842Z,101911.46
2019-02-17T16:17:39.867Z,101910.23
2019-02-17T16:20:11.055Z,101911.72
2019-02-17T16:22:40.358Z,101916.19
2019-02-17T16:25:09.787Z,101780.56
2019-02-17T16:27:39.411Z,101918.46
2019-02-17T16:30:11.602Z,101917.81
2019-02-17T16:32:40.968Z,101895.17
2019-02-17T16:35:10.203Z,101924.13
2019-02-17T16:37:39.509Z,101926.50
2019-02-17T16:40:11.332Z,101928.05
2019-02-17T16:42:40.591Z,101927.66
2019-02-17T16:45:11.177Z,101933.45
2019-02-17T16:47:40.464Z,101940.77
2019-02-17T16:50:12.398Z,101944.20
2019-02-17T16:52:41.832Z,101942.28
2019-02-17T16:55:11.434Z,101937.97
2019-02-17T16:57:41.244Z,101941.32
2019-02-17T17:00:15.735Z,101944.75
2019-02-17T17:02:45.425Z,101939.30
2019-02-17T17:05:14.967Z,101955.91
2019-02-17T17:07:44.555Z,101939.06
2019-02-17T17:10:14.046Z,101940.28
2019-02-17T17:12:43.364Z,101932.80
2019-02-17T17:15:12.753Z,101938.61
2019-02-17T17:17:42.055Z,101947.70
2019-02-17T17:20:11.513Z,101949.71
2019-02-17T17:22:40.679Z,101944.02
2019-02-17T17:25:10.685Z,101950.00
2019-02-17T17:27:41.420Z,101946.91
2019-02-17T17:30:11.889Z,101942.40
2019-02-17T17:32:41.196Z,101944.09
2019-02-17T17:35:11.796Z,101944.68
2019-02-17T17:37:41.148Z,101952.77
2019-02-17T17:40:11.693Z,101954.25
2019-02-17T17:42:44.723Z,101963.23
2019-02-17T17:45:14.649Z,101970.23
2019-02-17T17:47:43.941Z,101972.44
2019-02-17T17:50:14.195Z,101967.34
2019-02-17T17:52:43.502Z,101963.53
2019-02-17T17:55:13.371Z,101964.72
2019-02-17T17:57:42.689Z,101964.91
2019-02-17T18:00:14.574Z,101964.29
2019-02-17T18:02:43.925Z,101959.31
2019-02-17T18:05:13.719Z,101961.51
2019-02-17T18:07:43.025Z,101955.81
2019-02-17T18:10:15.067Z,101957.11
2019-02-17T18:12:44.263Z,101954.00
2019-02-17T18:15:13.748Z,101955.88
2019-02-17T18:17:53.793Z,101954.77
2019-02-17T18:20:16.846Z,101954.27
2019-02-17T18:22:46.185Z,101957.37
2019-02-17T18:25:15.746Z,101963.57
2019-02-17T18:27:45.047Z,101966.78
2019-02-17T18:30:16.511Z,101973.09
2019-02-17T18:32:47.285Z,101976.19
2019-02-17T18:35:21.554Z,101973.48
2019-02-17T18:37:51.290Z,101965.98
2019-02-17T18:40:20.504Z,101967.17
2019-02-17T18:42:49.792Z,101961.77
2019-02-17T18:45:20.652Z,101948.17
2019-02-17T18:47:49.715Z,101939.88
2019-02-17T18:50:18.945Z,101947.16
2019-02-17T18:52:48.308Z,101956.22
2019-02-17T18:55:19.868Z,101944.92
2019-02-17T18:57:51.010Z,101934.83
2019-02-17T19:00:20.440Z,101932.70
2019-02-17T19:02:49.685Z,101946.19
2019-02-17T19:05:21.696Z,101945.18
2019-02-17T19:07:50.135Z,101943.70
2019-02-17T19:10:20.214Z,101941.22
2019-02-17T19:12:49.412Z,101936.63
2019-02-17T19:15:19.827Z,101930.43
2019-02-17T19:17:49.285Z,101927.01
2019-02-17T19:20:19.555Z,101928.77
2019-02-17T19:22:48.865Z,101927.55
2019-02-17T19:25:18.171Z,101934.61
2019-02-17T19:27:47.373Z,101932.09
2019-02-17T19:30:16.754Z,101929.12
2019-02-17T19:32:46.871Z,101932.28
2019-02-17T19:35:16.202Z,101926.08
2019-02-17T19:37:45.496Z,101933.36
2019-02-17T19:40:14.858Z,101932.35
2019-02-17T19:42:44.199Z,101940.02
2019-02-17T19:45:13.560Z,101941.83
2019-02-17T19:47:43.000Z,101948.70
2019-02-17T19:50:12.876Z,101949.67
2019-02-17T19:52:42.139Z,101711.48
2019-02-17T19:55:11.910Z,101962.59
2019-02-17T19:57:41.135Z,101955.60
2019-02-17T20:00:12.117Z,101958.30
2019-02-17T20:02:51.414Z,101954.81
2019-02-17T20:05:22.237Z,101951.48
2019-02-17T20:07:53.905Z,101957.75
2019-02-17T20:10:23.324Z,101951.15
2019-02-17T20:12:52.554Z,101957.52
2019-02-17T20:15:23.644Z,101955.83
2019-02-17T20:17:53.222Z,101952.17
2019-02-17T20:20:22.974Z,101945.17
2019-02-17T20:22:54.303Z,101942.30
2019-02-17T20:25:23.566Z,101943.59
2019-02-17T20:27:52.792Z,101939.71
2019-02-17T20:30:22.178Z,101939.31
2019-02-17T20:32:51.403Z,101938.24
2019-02-17T20:35:20.667Z,101939.03
2019-02-17T20:37:50.118Z,101936.44
2019-02-17T20:40:19.406Z,101939.53
2019-02-17T20:42:48.668Z,101943.54
2019-02-17T20:45:18.286Z,101938.02
2019-02-17T20:47:52.762Z,101947.27
2019-02-17T20:50:22.338Z,101947.77
2019-02-17T20:52:53.653Z,101949.97
2019-02-17T20:55:29.691Z,101950.64
2019-02-17T20:57:58.974Z,101940.95
2019-02-17T21:00:29.171Z,101943.77
2019-02-17T21:02:59.758Z,101949.28
2019-02-17T21:05:28.974Z,101943.76
2019-02-17T21:07:58.167Z,101943.76
2019-02-17T21:10:27.483Z,101935.31
2019-02-17T21:12:56.721Z,101935.02
2019-02-17T21:15:26.003Z,101945.39
2019-02-17T21:17:55.534Z,101948.49
2019-02-17T21:20:24.806Z,101950.81
2019-02-17T21:22:54.112Z,101949.23
2019-02-17T21:25:23.687Z,101946.64
2019-02-17T21:27:52.925Z,101938.35
2019-02-17T21:30:22.157Z,101934.86
2019-02-17T21:32:51.570Z,101930.34
2019-02-17T21:35:20.768Z,101925.33
2019-02-17T21:37:49.995Z,101919.13
2019-02-17T21:40:19.472Z,101916.94
2019-02-17T21:42:48.786Z,101916.70
2019-02-17T21:45:17.982Z,101910.56
2019-02-17T21:47:49.327Z,101907.12
2019-02-17T21:50:18.526Z,101909.48
2019-02-17T21:52:47.752Z,101912.74
2019-02-17T21:55:17.170Z,101910.59
2019-02-17T21:57:46.370Z,101911.94
2019-02-17T22:00:16.803Z,101918.58
2019-02-17T22:02:46.238Z,101906.92
2019-02-17T22:05:15.417Z,101913.52
2019-02-17T22:07:44.931Z,101908.84
2019-02-17T22:10:14.957Z,101903.27
2019-02-17T22:12:44.167Z,101913.74
2019-02-17T22:15:14.737Z,101903.77
2019-02-17T22:17:44.178Z,101902.59
2019-02-17T22:20:13.503Z,101873.34
2019-02-17T22:22:42.693Z,101908.28
2019-02-17T22:25:13.724Z,101899.33
2019-02-17T22:27:42.917Z,101897.25
2019-02-17T22:30:12.138Z,101898.14
2019-02-17T22:32:41.723Z,101893.36
2019-02-17T22:35:11.320Z,101893.08
2019-02-17T22:37:40.536Z,101894.48
2019-02-17T22:40:10.476Z,101897.87
2019-02-17T22:42:39.717Z,101900.86
2019-02-17T22:45:09.290Z,101891.28
2019-02-17T22:47:38.661Z,101891.05
2019-02-17T22:50:08.760Z,101893.92
2019-02-17T22:52:37.962Z,101898.87
2019-02-17T22:55:08.646Z,101904.56
2019-02-17T22:57:37.918Z,101902.88
2019-02-17T23:00:16.745Z,101902.48
2019-02-17T23:02:46.111Z,101905.58
2019-02-17T23:05:15.372Z,101907.66
2019-02-17T23:07:44.948Z,101908.49
2019-02-17T23:10:14.222Z,101906.41
2019-02-17T23:12:43.589Z,101902.52
2019-02-17T23:15:13.132Z,101907.31
2019-02-17T23:17:42.319Z,101912.49
2019-02-17T23:20:11.509Z,101906.13
2019-02-17T23:22:41.034Z,101901.23
2019-02-17T23:25:10.646Z,101895.54
2019-02-17T23:27:39.958Z,101898.97
2019-02-17T23:30:09.335Z,101901.33
2019-02-17T23:32:38.526Z,101906.27
2019-02-17T23:35:07.719Z,101901.05
2019-02-17T23:37:37.152Z,101897.67
2019-02-17T23:40:07.547Z,101889.94
2019-02-17T23:42:39.526Z,101895.23
2019-02-17T23:45:09.019Z,101884.60
2019-02-17T23:47:38.211Z,101883.53
2019-02-17T23:50:07.821Z,101877.96
2019-02-17T23:52:37.070Z,101886.24
2019-02-17T23:55:06.382Z,101881.80
2019-02-17T23:57:35.842Z,101880.34
